sensor_id;sensor_type;location;lat;lon;timestamp;P1;durP1;ratioP1;P2;durP2;ratioP2
83465;SDS011;73393;51.946;20.140;2023-11-19T00:00:26;40.30;;;20.60;;
83465;SDS011;73393;51.946;20.140;2023-11-19T00:02:52;42.07;;;22.23;;
83465;SDS011;73393;51.946;20.140;2023-11-19T00:05:18;43.23;;;22.63;;
83465;SDS011;73393;51.946;20.140;2023-11-19T00:07:45;43.20;;;21.60;;
83465;SDS011;73393;51.946;20.140;2023-11-19T00:10:11;44.77;;;23.47;;
83465;SDS011;73393;51.946;20.140;2023-11-19T00:12:41;42.83;;;20.60;;
83465;SDS011;73393;51.946;20.140;2023-11-19T00:15:12;43.00;;;22.90;;
83465;SDS011;73393;51.946;20.140;2023-11-19T00:17:42;46.80;;;22.67;;
83465;SDS011;73393;51.946;20.140;2023-11-19T00:20:12;50.97;;;25.73;;
83465;SDS011;73393;51.946;20.140;2023-11-19T00:22:42;51.40;;;27.37;;
83465;SDS011;73393;51.946;20.140;2023-11-19T00:25:09;51.37;;;25.50;;
83465;SDS011;73393;51.946;20.140;2023-11-19T00:27:35;56.43;;;27.80;;
83465;SDS011;73393;51.946;20.140;2023-11-19T00:30:02;51.23;;;27.87;;
83465;SDS011;73393;51.946;20.140;2023-11-19T00:32:30;50.60;;;24.53;;
83465;SDS011;73393;51.946;20.140;2023-11-19T00:34:56;47.80;;;24.87;;
83465;SDS011;73393;51.946;20.140;2023-11-19T00:37:22;46.63;;;22.13;;
83465;SDS011;73393;51.946;20.140;2023-11-19T00:39:48;50.87;;;23.97;;
83465;SDS011;73393;51.946;20.140;2023-11-19T00:42:13;45.80;;;22.20;;
83465;SDS011;73393;51.946;20.140;2023-11-19T00:44:39;45.33;;;22.10;;
83465;SDS011;73393;51.946;20.140;2023-11-19T00:47:06;47.00;;;21.97;;
83465;SDS011;73393;51.946;20.140;2023-11-19T00:49:31;45.50;;;22.70;;
83465;SDS011;73393;51.946;20.140;2023-11-19T00:51:58;44.77;;;22.53;;
83465;SDS011;73393;51.946;20.140;2023-11-19T00:54:24;48.30;;;24.53;;
83465;SDS011;73393;51.946;20.140;2023-11-19T00:56:52;46.83;;;23.13;;
83465;SDS011;73393;51.946;20.140;2023-11-19T00:59:18;43.20;;;23.67;;
83465;SDS011;73393;51.946;20.140;2023-11-19T01:01:44;45.33;;;21.80;;
83465;SDS011;73393;51.946;20.140;2023-11-19T01:04:09;42.23;;;22.33;;
83465;SDS011;73393;51.946;20.140;2023-11-19T01:06:35;43.47;;;20.10;;
83465;SDS011;73393;51.946;20.140;2023-11-19T01:09:07;46.30;;;23.33;;
83465;SDS011;73393;51.946;20.140;2023-11-19T01:11:33;48.27;;;22.50;;
83465;SDS011;73393;51.946;20.140;2023-11-19T01:13:59;51.50;;;23.27;;
83465;SDS011;73393;51.946;20.140;2023-11-19T01:16:25;43.67;;;21.67;;
83465;SDS011;73393;51.946;20.140;2023-11-19T01:18:51;44.23;;;22.70;;
83465;SDS011;73393;51.946;20.140;2023-11-19T01:21:17;41.07;;;21.73;;
83465;SDS011;73393;51.946;20.140;2023-11-19T01:23:43;41.13;;;21.30;;
83465;SDS011;73393;51.946;20.140;2023-11-19T01:26:09;41.03;;;22.73;;
83465;SDS011;73393;51.946;20.140;2023-11-19T01:28:36;42.13;;;21.63;;
83465;SDS011;73393;51.946;20.140;2023-11-19T01:31:01;47.73;;;22.70;;
83465;SDS011;73393;51.946;20.140;2023-11-19T01:33:28;41.23;;;21.20;;
83465;SDS011;73393;51.946;20.140;2023-11-19T01:35:54;39.77;;;21.80;;
83465;SDS011;73393;51.946;20.140;2023-11-19T01:38:21;42.50;;;21.93;;
83465;SDS011;73393;51.946;20.140;2023-11-19T01:40:46;40.20;;;20.83;;
83465;SDS011;73393;51.946;20.140;2023-11-19T01:43:12;40.67;;;19.40;;
83465;SDS011;73393;51.946;20.140;2023-11-19T01:45:55;39.27;;;20.07;;
83465;SDS011;73393;51.946;20.140;2023-11-19T01:48:21;35.07;;;19.63;;
83465;SDS011;73393;51.946;20.140;2023-11-19T01:50:47;39.73;;;20.47;;
83465;SDS011;73393;51.946;20.140;2023-11-19T01:53:13;37.43;;;19.63;;
83465;SDS011;73393;51.946;20.140;2023-11-19T01:55:39;38.43;;;20.07;;
83465;SDS011;73393;51.946;20.140;2023-11-19T01:58:05;38.33;;;21.73;;
83465;SDS011;73393;51.946;20.140;2023-11-19T02:00:32;38.37;;;18.33;;
83465;SDS011;73393;51.946;20.140;2023-11-19T02:02:58;36.77;;;17.80;;
83465;SDS011;73393;51.946;20.140;2023-11-19T02:05:24;39.43;;;19.13;;
83465;SDS011;73393;51.946;20.140;2023-11-19T02:07:50;41.33;;;20.03;;
83465;SDS011;73393;51.946;20.140;2023-11-19T02:10:16;43.43;;;19.50;;
83465;SDS011;73393;51.946;20.140;2023-11-19T02:12:44;38.53;;;18.73;;
83465;SDS011;73393;51.946;20.140;2023-11-19T02:15:10;44.60;;;21.87;;
83465;SDS011;73393;51.946;20.140;2023-11-19T02:17:36;37.43;;;19.13;;
83465;SDS011;73393;51.946;20.140;2023-11-19T02:20:05;40.77;;;19.20;;
83465;SDS011;73393;51.946;20.140;2023-11-19T02:22:36;31.83;;;17.23;;
83465;SDS011;73393;51.946;20.140;2023-11-19T02:25:07;36.27;;;18.53;;
83465;SDS011;73393;51.946;20.140;2023-11-19T02:30:08;28.40;;;17.20;;
83465;SDS011;73393;51.946;20.140;2023-11-19T02:32:34;33.27;;;17.93;;
83465;SDS011;73393;51.946;20.140;2023-11-19T02:35:01;38.80;;;19.77;;
83465;SDS011;73393;51.946;20.140;2023-11-19T02:37:26;36.57;;;18.03;;
83465;SDS011;73393;51.946;20.140;2023-11-19T02:39:53;34.73;;;17.53;;
83465;SDS011;73393;51.946;20.140;2023-11-19T02:42:19;34.87;;;17.57;;
83465;SDS011;73393;51.946;20.140;2023-11-19T02:44:44;35.60;;;17.30;;
83465;SDS011;73393;51.946;20.140;2023-11-19T02:47:11;33.47;;;17.80;;
83465;SDS011;73393;51.946;20.140;2023-11-19T02:49:37;36.30;;;18.53;;
83465;SDS011;73393;51.946;20.140;2023-11-19T02:52:03;31.00;;;17.30;;
83465;SDS011;73393;51.946;20.140;2023-11-19T02:54:30;35.70;;;17.23;;
83465;SDS011;73393;51.946;20.140;2023-11-19T02:57:00;30.67;;;16.87;;
83465;SDS011;73393;51.946;20.140;2023-11-19T02:59:28;30.60;;;16.27;;
83465;SDS011;73393;51.946;20.140;2023-11-19T03:02:03;32.47;;;16.83;;
83465;SDS011;73393;51.946;20.140;2023-11-19T03:04:31;29.57;;;16.53;;
83465;SDS011;73393;51.946;20.140;2023-11-19T03:06:57;32.30;;;17.77;;
83465;SDS011;73393;51.946;20.140;2023-11-19T03:09:23;28.73;;;16.20;;
83465;SDS011;73393;51.946;20.140;2023-11-19T03:11:49;31.93;;;16.33;;
83465;SDS011;73393;51.946;20.140;2023-11-19T03:14:15;31.47;;;16.43;;
83465;SDS011;73393;51.946;20.140;2023-11-19T03:16:40;28.30;;;15.17;;
83465;SDS011;73393;51.946;20.140;2023-11-19T03:19:06;31.33;;;15.40;;
83465;SDS011;73393;51.946;20.140;2023-11-19T03:21:31;30.47;;;15.77;;
83465;SDS011;73393;51.946;20.140;2023-11-19T03:23:57;32.40;;;17.33;;
83465;SDS011;73393;51.946;20.140;2023-11-19T03:26:26;36.63;;;15.83;;
83465;SDS011;73393;51.946;20.140;2023-11-19T03:28:52;31.77;;;16.23;;
83465;SDS011;73393;51.946;20.140;2023-11-19T03:31:19;32.03;;;17.40;;
83465;SDS011;73393;51.946;20.140;2023-11-19T03:33:45;32.07;;;17.97;;
83465;SDS011;73393;51.946;20.140;2023-11-19T03:36:11;35.93;;;18.17;;
83465;SDS011;73393;51.946;20.140;2023-11-19T03:38:37;31.83;;;17.23;;
83465;SDS011;73393;51.946;20.140;2023-11-19T03:41:13;34.57;;;16.63;;
83465;SDS011;73393;51.946;20.140;2023-11-19T03:43:39;29.70;;;16.00;;
83465;SDS011;73393;51.946;20.140;2023-11-19T03:46:18;35.47;;;18.50;;
83465;SDS011;73393;51.946;20.140;2023-11-19T03:48:44;36.83;;;18.73;;
83465;SDS011;73393;51.946;20.140;2023-11-19T03:51:11;44.13;;;22.47;;
83465;SDS011;73393;51.946;20.140;2023-11-19T03:53:44;48.83;;;25.87;;
83465;SDS011;73393;51.946;20.140;2023-11-19T03:56:10;43.63;;;22.90;;
83465;SDS011;73393;51.946;20.140;2023-11-19T03:58:37;42.97;;;21.67;;
83465;SDS011;73393;51.946;20.140;2023-11-19T04:01:03;36.20;;;18.80;;
83465;SDS011;73393;51.946;20.140;2023-11-19T04:03:35;31.40;;;16.63;;
83465;SDS011;73393;51.946;20.140;2023-11-19T04:06:01;34.23;;;19.00;;
83465;SDS011;73393;51.946;20.140;2023-11-19T04:08:27;32.33;;;17.37;;
83465;SDS011;73393;51.946;20.140;2023-11-19T04:10:53;30.53;;;17.37;;
83465;SDS011;73393;51.946;20.140;2023-11-19T04:13:18;35.43;;;18.90;;
83465;SDS011;73393;51.946;20.140;2023-11-19T04:15:45;36.80;;;19.57;;
83465;SDS011;73393;51.946;20.140;2023-11-19T04:18:10;38.73;;;17.47;;
83465;SDS011;73393;51.946;20.140;2023-11-19T04:20:36;30.77;;;18.23;;
83465;SDS011;73393;51.946;20.140;2023-11-19T04:23:01;40.43;;;20.90;;
83465;SDS011;73393;51.946;20.140;2023-11-19T04:25:27;54.73;;;26.33;;
83465;SDS011;73393;51.946;20.140;2023-11-19T04:27:53;60.33;;;31.87;;
83465;SDS011;73393;51.946;20.140;2023-11-19T04:30:19;53.27;;;30.87;;
83465;SDS011;73393;51.946;20.140;2023-11-19T04:32:45;86.60;;;48.37;;
83465;SDS011;73393;51.946;20.140;2023-11-19T04:35:10;86.77;;;42.83;;
83465;SDS011;73393;51.946;20.140;2023-11-19T04:37:37;84.63;;;40.23;;
83465;SDS011;73393;51.946;20.140;2023-11-19T04:40:04;59.93;;;27.67;;
83465;SDS011;73393;51.946;20.140;2023-11-19T04:42:30;62.13;;;26.33;;
83465;SDS011;73393;51.946;20.140;2023-11-19T04:44:57;44.07;;;21.43;;
83465;SDS011;73393;51.946;20.140;2023-11-19T04:47:23;37.70;;;18.43;;
83465;SDS011;73393;51.946;20.140;2023-11-19T04:49:49;37.87;;;19.87;;
83465;SDS011;73393;51.946;20.140;2023-11-19T04:52:14;37.60;;;19.23;;
83465;SDS011;73393;51.946;20.140;2023-11-19T04:54:40;38.70;;;20.37;;
83465;SDS011;73393;51.946;20.140;2023-11-19T04:57:07;39.03;;;20.37;;
83465;SDS011;73393;51.946;20.140;2023-11-19T04:59:35;39.50;;;20.33;;
83465;SDS011;73393;51.946;20.140;2023-11-19T05:02:01;36.93;;;20.77;;
83465;SDS011;73393;51.946;20.140;2023-11-19T05:04:27;43.90;;;21.53;;
83465;SDS011;73393;51.946;20.140;2023-11-19T05:06:52;39.67;;;19.90;;
83465;SDS011;73393;51.946;20.140;2023-11-19T05:09:19;43.50;;;22.00;;
83465;SDS011;73393;51.946;20.140;2023-11-19T05:11:45;38.63;;;20.37;;
83465;SDS011;73393;51.946;20.140;2023-11-19T05:14:11;35.60;;;19.57;;
83465;SDS011;73393;51.946;20.140;2023-11-19T05:16:39;39.70;;;19.63;;
83465;SDS011;73393;51.946;20.140;2023-11-19T05:19:05;36.70;;;20.13;;
83465;SDS011;73393;51.946;20.140;2023-11-19T05:21:30;30.67;;;18.60;;
83465;SDS011;73393;51.946;20.140;2023-11-19T05:23:56;33.80;;;18.10;;
83465;SDS011;73393;51.946;20.140;2023-11-19T05:26:22;34.23;;;17.37;;
83465;SDS011;73393;51.946;20.140;2023-11-19T05:28:49;37.87;;;17.33;;
83465;SDS011;73393;51.946;20.140;2023-11-19T05:31:15;30.40;;;16.37;;
83465;SDS011;73393;51.946;20.140;2023-11-19T05:33:42;36.40;;;18.07;;
83465;SDS011;73393;51.946;20.140;2023-11-19T05:36:08;32.03;;;16.10;;
83465;SDS011;73393;51.946;20.140;2023-11-19T05:38:35;39.07;;;17.83;;
83465;SDS011;73393;51.946;20.140;2023-11-19T05:41:01;34.67;;;18.63;;
83465;SDS011;73393;51.946;20.140;2023-11-19T05:43:28;36.33;;;18.63;;
83465;SDS011;73393;51.946;20.140;2023-11-19T05:45:53;35.43;;;18.93;;
83465;SDS011;73393;51.946;20.140;2023-11-19T05:48:20;33.90;;;19.20;;
83465;SDS011;73393;51.946;20.140;2023-11-19T05:50:46;35.17;;;18.43;;
83465;SDS011;73393;51.946;20.140;2023-11-19T05:53:12;35.50;;;18.33;;
83465;SDS011;73393;51.946;20.140;2023-11-19T05:55:39;33.37;;;20.07;;
83465;SDS011;73393;51.946;20.140;2023-11-19T05:58:26;34.70;;;16.98;;
83465;SDS011;73393;51.946;20.140;2023-11-19T06:00:57;32.00;;;18.17;;
83465;SDS011;73393;51.946;20.140;2023-11-19T06:03:22;38.17;;;19.03;;
83465;SDS011;73393;51.946;20.140;2023-11-19T06:05:49;33.90;;;17.50;;
83465;SDS011;73393;51.946;20.140;2023-11-19T06:08:17;30.97;;;18.33;;
83465;SDS011;73393;51.946;20.140;2023-11-19T06:10:43;32.80;;;17.60;;
83465;SDS011;73393;51.946;20.140;2023-11-19T06:13:11;31.30;;;19.17;;
83465;SDS011;73393;51.946;20.140;2023-11-19T06:15:38;36.43;;;19.33;;
83465;SDS011;73393;51.946;20.140;2023-11-19T06:18:06;32.83;;;18.33;;
83465;SDS011;73393;51.946;20.140;2023-11-19T06:20:32;32.83;;;18.27;;
83465;SDS011;73393;51.946;20.140;2023-11-19T06:22:58;33.27;;;16.17;;
83465;SDS011;73393;51.946;20.140;2023-11-19T06:25:24;30.73;;;16.60;;
83465;SDS011;73393;51.946;20.140;2023-11-19T06:27:50;30.17;;;16.30;;
83465;SDS011;73393;51.946;20.140;2023-11-19T06:30:17;29.70;;;17.30;;
83465;SDS011;73393;51.946;20.140;2023-11-19T06:32:43;32.60;;;16.93;;
83465;SDS011;73393;51.946;20.140;2023-11-19T06:35:09;31.07;;;17.37;;
83465;SDS011;73393;51.946;20.140;2023-11-19T06:37:35;28.03;;;16.23;;
83465;SDS011;73393;51.946;20.140;2023-11-19T06:40:01;31.77;;;17.17;;
83465;SDS011;73393;51.946;20.140;2023-11-19T06:42:29;28.43;;;15.67;;
83465;SDS011;73393;51.946;20.140;2023-11-19T06:44:55;32.30;;;15.63;;
83465;SDS011;73393;51.946;20.140;2023-11-19T06:47:22;31.40;;;15.73;;
83465;SDS011;73393;51.946;20.140;2023-11-19T06:49:50;27.10;;;14.30;;
83465;SDS011;73393;51.946;20.140;2023-11-19T06:52:17;27.27;;;14.97;;
83465;SDS011;73393;51.946;20.140;2023-11-19T06:54:42;32.00;;;15.20;;
83465;SDS011;73393;51.946;20.140;2023-11-19T06:57:08;33.00;;;18.13;;
83465;SDS011;73393;51.946;20.140;2023-11-19T06:59:34;28.67;;;15.53;;
83465;SDS011;73393;51.946;20.140;2023-11-19T07:02:00;33.60;;;15.67;;
83465;SDS011;73393;51.946;20.140;2023-11-19T07:04:25;25.30;;;15.67;;
83465;SDS011;73393;51.946;20.140;2023-11-19T07:06:51;27.17;;;14.80;;
83465;SDS011;73393;51.946;20.140;2023-11-19T07:09:18;35.43;;;18.30;;
83465;SDS011;73393;51.946;20.140;2023-11-19T07:11:44;30.23;;;17.23;;
83465;SDS011;73393;51.946;20.140;2023-11-19T07:14:10;36.67;;;19.03;;
83465;SDS011;73393;51.946;20.140;2023-11-19T07:16:37;41.20;;;21.03;;
83465;SDS011;73393;51.946;20.140;2023-11-19T07:19:04;27.43;;;16.17;;
83465;SDS011;73393;51.946;20.140;2023-11-19T07:21:30;29.90;;;17.87;;
83465;SDS011;73393;51.946;20.140;2023-11-19T07:23:57;35.63;;;18.70;;
83465;SDS011;73393;51.946;20.140;2023-11-19T07:26:23;49.10;;;25.77;;
83465;SDS011;73393;51.946;20.140;2023-11-19T07:28:49;51.07;;;24.77;;
83465;SDS011;73393;51.946;20.140;2023-11-19T07:31:15;49.07;;;26.27;;
83465;SDS011;73393;51.946;20.140;2023-11-19T07:33:41;49.60;;;23.10;;
83465;SDS011;73393;51.946;20.140;2023-11-19T07:36:10;44.10;;;23.43;;
83465;SDS011;73393;51.946;20.140;2023-11-19T07:38:36;51.37;;;28.83;;
83465;SDS011;73393;51.946;20.140;2023-11-19T07:41:04;49.10;;;25.37;;
83465;SDS011;73393;51.946;20.140;2023-11-19T07:43:31;42.27;;;22.23;;
83465;SDS011;73393;51.946;20.140;2023-11-19T07:45:56;43.73;;;21.07;;
83465;SDS011;73393;51.946;20.140;2023-11-19T07:48:24;41.23;;;22.80;;
83465;SDS011;73393;51.946;20.140;2023-11-19T07:50:51;33.30;;;20.70;;
83465;SDS011;73393;51.946;20.140;2023-11-19T07:53:18;38.77;;;18.07;;
83465;SDS011;73393;51.946;20.140;2023-11-19T07:55:44;46.43;;;22.20;;
83465;SDS011;73393;51.946;20.140;2023-11-19T07:58:10;55.87;;;28.63;;
83465;SDS011;73393;51.946;20.140;2023-11-19T08:00:36;51.90;;;24.40;;
83465;SDS011;73393;51.946;20.140;2023-11-19T08:03:05;45.00;;;20.23;;
83465;SDS011;73393;51.946;20.140;2023-11-19T08:05:31;36.93;;;20.30;;
83465;SDS011;73393;51.946;20.140;2023-11-19T08:07:57;40.30;;;20.73;;
83465;SDS011;73393;51.946;20.140;2023-11-19T08:10:23;28.07;;;15.37;;
83465;SDS011;73393;51.946;20.140;2023-11-19T08:12:48;28.90;;;16.27;;
83465;SDS011;73393;51.946;20.140;2023-11-19T08:15:14;32.77;;;18.23;;
83465;SDS011;73393;51.946;20.140;2023-11-19T08:17:40;31.63;;;17.00;;
83465;SDS011;73393;51.946;20.140;2023-11-19T08:20:08;26.23;;;14.70;;
83465;SDS011;73393;51.946;20.140;2023-11-19T08:22:36;28.60;;;16.40;;
83465;SDS011;73393;51.946;20.140;2023-11-19T08:25:03;34.57;;;19.70;;
83465;SDS011;73393;51.946;20.140;2023-11-19T08:27:29;33.00;;;18.93;;
83465;SDS011;73393;51.946;20.140;2023-11-19T08:29:55;39.40;;;20.80;;
83465;SDS011;73393;51.946;20.140;2023-11-19T08:32:22;31.73;;;17.60;;
83465;SDS011;73393;51.946;20.140;2023-11-19T08:34:48;33.73;;;18.30;;
83465;SDS011;73393;51.946;20.140;2023-11-19T08:37:13;30.17;;;16.63;;
83465;SDS011;73393;51.946;20.140;2023-11-19T08:39:39;25.57;;;14.50;;
83465;SDS011;73393;51.946;20.140;2023-11-19T08:42:06;28.50;;;15.77;;
83465;SDS011;73393;51.946;20.140;2023-11-19T08:44:31;30.63;;;16.67;;
83465;SDS011;73393;51.946;20.140;2023-11-19T08:46:57;34.67;;;18.23;;
83465;SDS011;73393;51.946;20.140;2023-11-19T08:49:23;44.00;;;22.10;;
83465;SDS011;73393;51.946;20.140;2023-11-19T08:51:48;26.93;;;13.87;;
83465;SDS011;73393;51.946;20.140;2023-11-19T08:54:14;37.90;;;19.63;;
83465;SDS011;73393;51.946;20.140;2023-11-19T08:56:39;34.03;;;16.87;;
83465;SDS011;73393;51.946;20.140;2023-11-19T08:59:05;34.43;;;17.67;;
83465;SDS011;73393;51.946;20.140;2023-11-19T09:01:31;24.07;;;14.00;;
83465;SDS011;73393;51.946;20.140;2023-11-19T09:03:57;29.17;;;15.83;;
83465;SDS011;73393;51.946;20.140;2023-11-19T09:06:22;25.97;;;15.03;;
83465;SDS011;73393;51.946;20.140;2023-11-19T09:08:48;27.93;;;15.97;;
83465;SDS011;73393;51.946;20.140;2023-11-19T09:11:14;34.80;;;21.60;;
83465;SDS011;73393;51.946;20.140;2023-11-19T09:13:39;35.30;;;21.10;;
83465;SDS011;73393;51.946;20.140;2023-11-19T09:16:05;44.30;;;24.63;;
83465;SDS011;73393;51.946;20.140;2023-11-19T09:18:32;33.57;;;17.33;;
83465;SDS011;73393;51.946;20.140;2023-11-19T09:21:00;31.50;;;16.23;;
83465;SDS011;73393;51.946;20.140;2023-11-19T09:23:27;31.10;;;17.07;;
83465;SDS011;73393;51.946;20.140;2023-11-19T09:25:55;33.83;;;17.53;;
83465;SDS011;73393;51.946;20.140;2023-11-19T09:28:21;30.20;;;17.23;;
83465;SDS011;73393;51.946;20.140;2023-11-19T09:30:47;34.40;;;18.63;;
83465;SDS011;73393;51.946;20.140;2023-11-19T09:33:12;33.17;;;19.70;;
83465;SDS011;73393;51.946;20.140;2023-11-19T09:35:38;27.83;;;14.90;;
83465;SDS011;73393;51.946;20.140;2023-11-19T09:38:04;31.93;;;17.80;;
83465;SDS011;73393;51.946;20.140;2023-11-19T09:40:30;42.37;;;21.80;;
83465;SDS011;73393;51.946;20.140;2023-11-19T09:42:56;51.20;;;25.90;;
83465;SDS011;73393;51.946;20.140;2023-11-19T09:45:22;37.83;;;19.03;;
83465;SDS011;73393;51.946;20.140;2023-11-19T09:47:52;35.90;;;19.43;;
83465;SDS011;73393;51.946;20.140;2023-11-19T09:50:19;31.47;;;18.17;;
83465;SDS011;73393;51.946;20.140;2023-11-19T09:52:48;31.03;;;18.77;;
83465;SDS011;73393;51.946;20.140;2023-11-19T09:55:14;31.37;;;17.87;;
83465;SDS011;73393;51.946;20.140;2023-11-19T09:57:40;31.77;;;16.53;;
83465;SDS011;73393;51.946;20.140;2023-11-19T10:00:09;26.00;;;12.97;;
83465;SDS011;73393;51.946;20.140;2023-11-19T10:02:36;28.57;;;15.63;;
83465;SDS011;73393;51.946;20.140;2023-11-19T10:05:04;26.43;;;14.73;;
83465;SDS011;73393;51.946;20.140;2023-11-19T10:07:32;29.67;;;17.30;;
83465;SDS011;73393;51.946;20.140;2023-11-19T10:10:02;32.93;;;16.80;;
83465;SDS011;73393;51.946;20.140;2023-11-19T10:12:30;33.03;;;18.73;;
83465;SDS011;73393;51.946;20.140;2023-11-19T10:14:57;28.00;;;16.80;;
83465;SDS011;73393;51.946;20.140;2023-11-19T10:17:32;30.03;;;15.93;;
83465;SDS011;73393;51.946;20.140;2023-11-19T10:19:59;34.23;;;19.83;;
83465;SDS011;73393;51.946;20.140;2023-11-19T10:22:24;35.77;;;20.87;;
83465;SDS011;73393;51.946;20.140;2023-11-19T10:24:52;31.23;;;17.67;;
83465;SDS011;73393;51.946;20.140;2023-11-19T10:27:17;39.40;;;20.33;;
83465;SDS011;73393;51.946;20.140;2023-11-19T10:29:46;42.47;;;22.13;;
83465;SDS011;73393;51.946;20.140;2023-11-19T10:32:14;39.30;;;20.17;;
83465;SDS011;73393;51.946;20.140;2023-11-19T10:34:43;28.40;;;16.37;;
83465;SDS011;73393;51.946;20.140;2023-11-19T10:37:11;30.93;;;16.93;;
83465;SDS011;73393;51.946;20.140;2023-11-19T10:39:53;40.17;;;20.17;;
83465;SDS011;73393;51.946;20.140;2023-11-19T10:42:19;39.00;;;19.53;;
83465;SDS011;73393;51.946;20.140;2023-11-19T10:44:45;34.00;;;18.77;;
83465;SDS011;73393;51.946;20.140;2023-11-19T10:47:13;29.33;;;16.13;;
83465;SDS011;73393;51.946;20.140;2023-11-19T10:49:40;42.53;;;23.03;;
83465;SDS011;73393;51.946;20.140;2023-11-19T10:52:05;53.73;;;37.27;;
83465;SDS011;73393;51.946;20.140;2023-11-19T10:54:34;36.50;;;25.63;;
83465;SDS011;73393;51.946;20.140;2023-11-19T10:56:59;59.57;;;36.57;;
83465;SDS011;73393;51.946;20.140;2023-11-19T10:59:31;57.23;;;33.77;;
83465;SDS011;73393;51.946;20.140;2023-11-19T11:04:27;36.63;;;23.43;;
83465;SDS011;73393;51.946;20.140;2023-11-19T11:06:58;33.27;;;17.27;;
83465;SDS011;73393;51.946;20.140;2023-11-19T11:09:26;27.67;;;16.33;;
83465;SDS011;73393;51.946;20.140;2023-11-19T11:11:53;26.57;;;15.73;;
83465;SDS011;73393;51.946;20.140;2023-11-19T11:14:20;25.87;;;15.10;;
83465;SDS011;73393;51.946;20.140;2023-11-19T11:16:48;27.53;;;15.50;;
83465;SDS011;73393;51.946;20.140;2023-11-19T11:19:17;26.63;;;14.73;;
83465;SDS011;73393;51.946;20.140;2023-11-19T11:21:50;29.23;;;15.37;;
83465;SDS011;73393;51.946;20.140;2023-11-19T11:27:23;30.93;;;15.27;;
83465;SDS011;73393;51.946;20.140;2023-11-19T11:38:00;24.57;;;13.03;;
83465;SDS011;73393;51.946;20.140;2023-11-19T11:40:31;27.60;;;14.87;;
83465;SDS011;73393;51.946;20.140;2023-11-19T11:42:57;27.77;;;15.10;;
83465;SDS011;73393;51.946;20.140;2023-11-19T11:45:36;33.13;;;16.77;;
83465;SDS011;73393;51.946;20.140;2023-11-19T11:48:11;26.57;;;14.43;;
83465;SDS011;73393;51.946;20.140;2023-11-19T11:50:53;27.20;;;14.10;;
83465;SDS011;73393;51.946;20.140;2023-11-19T11:53:22;20.30;;;12.18;;
83465;SDS011;73393;51.946;20.140;2023-11-19T11:58:18;33.47;;;16.83;;
83465;SDS011;73393;51.946;20.140;2023-11-19T12:00:51;29.80;;;16.17;;
83465;SDS011;73393;51.946;20.140;2023-11-19T12:03:18;26.10;;;13.77;;
83465;SDS011;73393;51.946;20.140;2023-11-19T12:05:46;26.33;;;15.63;;
83465;SDS011;73393;51.946;20.140;2023-11-19T12:08:13;30.87;;;16.43;;
83465;SDS011;73393;51.946;20.140;2023-11-19T12:10:47;27.53;;;14.73;;
83465;SDS011;73393;51.946;20.140;2023-11-19T12:13:16;26.33;;;14.33;;
83465;SDS011;73393;51.946;20.140;2023-11-19T12:18:30;28.30;;;16.37;;
83465;SDS011;73393;51.946;20.140;2023-11-19T12:20:57;23.33;;;13.87;;
83465;SDS011;73393;51.946;20.140;2023-11-19T12:23:26;25.67;;;14.47;;
83465;SDS011;73393;51.946;20.140;2023-11-19T12:25:54;30.37;;;15.93;;
83465;SDS011;73393;51.946;20.140;2023-11-19T12:28:20;25.97;;;14.93;;
83465;SDS011;73393;51.946;20.140;2023-11-19T12:30:49;25.20;;;13.43;;
83465;SDS011;73393;51.946;20.140;2023-11-19T12:33:15;23.47;;;14.40;;
83465;SDS011;73393;51.946;20.140;2023-11-19T12:35:41;25.97;;;13.73;;
83465;SDS011;73393;51.946;20.140;2023-11-19T12:38:08;17.90;;;10.93;;
83465;SDS011;73393;51.946;20.140;2023-11-19T12:40:43;24.57;;;12.60;;
83465;SDS011;73393;51.946;20.140;2023-11-19T12:43:09;24.17;;;13.83;;
83465;SDS011;73393;51.946;20.140;2023-11-19T12:45:35;21.10;;;12.80;;
83465;SDS011;73393;51.946;20.140;2023-11-19T12:48:04;21.60;;;12.67;;
83465;SDS011;73393;51.946;20.140;2023-11-19T12:50:49;22.20;;;12.53;;
83465;SDS011;73393;51.946;20.140;2023-11-19T12:53:16;24.03;;;13.47;;
83465;SDS011;73393;51.946;20.140;2023-11-19T12:55:43;22.80;;;11.97;;
83465;SDS011;73393;51.946;20.140;2023-11-19T12:58:08;26.20;;;13.97;;
83465;SDS011;73393;51.946;20.140;2023-11-19T13:00:34;26.00;;;15.33;;
83465;SDS011;73393;51.946;20.140;2023-11-19T13:03:01;23.27;;;14.23;;
83465;SDS011;73393;51.946;20.140;2023-11-19T13:10:51;23.23;;;13.20;;
83465;SDS011;73393;51.946;20.140;2023-11-19T13:13:18;25.57;;;14.07;;
83465;SDS011;73393;51.946;20.140;2023-11-19T13:15:44;24.93;;;13.80;;
83465;SDS011;73393;51.946;20.140;2023-11-19T13:18:10;28.43;;;14.87;;
83465;SDS011;73393;51.946;20.140;2023-11-19T13:20:37;36.97;;;18.20;;
83465;SDS011;73393;51.946;20.140;2023-11-19T13:23:03;32.47;;;19.30;;
83465;SDS011;73393;51.946;20.140;2023-11-19T13:25:30;28.67;;;16.07;;
83465;SDS011;73393;51.946;20.140;2023-11-19T13:27:57;25.30;;;14.50;;
83465;SDS011;73393;51.946;20.140;2023-11-19T13:30:23;26.83;;;15.93;;
83465;SDS011;73393;51.946;20.140;2023-11-19T13:32:49;27.57;;;14.53;;
83465;SDS011;73393;51.946;20.140;2023-11-19T13:35:15;28.27;;;17.43;;
83465;SDS011;73393;51.946;20.140;2023-11-19T13:37:42;31.53;;;18.63;;
83465;SDS011;73393;51.946;20.140;2023-11-19T13:40:08;35.10;;;19.47;;
83465;SDS011;73393;51.946;20.140;2023-11-19T13:42:35;42.77;;;25.47;;
83465;SDS011;73393;51.946;20.140;2023-11-19T13:45:05;39.05;;;23.70;;
83465;SDS011;73393;51.946;20.140;2023-11-19T13:47:38;36.27;;;18.90;;
83465;SDS011;73393;51.946;20.140;2023-11-19T13:50:06;32.47;;;17.10;;
83465;SDS011;73393;51.946;20.140;2023-11-19T13:52:33;26.30;;;15.23;;
83465;SDS011;73393;51.946;20.140;2023-11-19T13:54:59;29.07;;;16.07;;
83465;SDS011;73393;51.946;20.140;2023-11-19T13:57:24;26.73;;;14.80;;
83465;SDS011;73393;51.946;20.140;2023-11-19T13:59:50;28.37;;;15.40;;
83465;SDS011;73393;51.946;20.140;2023-11-19T14:02:15;29.93;;;15.33;;
83465;SDS011;73393;51.946;20.140;2023-11-19T14:04:41;28.40;;;15.77;;
83465;SDS011;73393;51.946;20.140;2023-11-19T14:07:06;29.70;;;16.37;;
83465;SDS011;73393;51.946;20.140;2023-11-19T14:09:32;34.37;;;17.83;;
83465;SDS011;73393;51.946;20.140;2023-11-19T14:11:58;23.53;;;14.00;;
83465;SDS011;73393;51.946;20.140;2023-11-19T14:14:23;27.93;;;15.87;;
83465;SDS011;73393;51.946;20.140;2023-11-19T14:16:49;28.47;;;17.33;;
83465;SDS011;73393;51.946;20.140;2023-11-19T14:19:14;32.23;;;18.90;;
83465;SDS011;73393;51.946;20.140;2023-11-19T14:21:40;27.53;;;16.80;;
83465;SDS011;73393;51.946;20.140;2023-11-19T14:24:06;28.53;;;14.77;;
83465;SDS011;73393;51.946;20.140;2023-11-19T14:26:31;29.73;;;15.70;;
83465;SDS011;73393;51.946;20.140;2023-11-19T14:28:57;28.97;;;15.20;;
83465;SDS011;73393;51.946;20.140;2023-11-19T14:31:22;27.20;;;14.70;;
83465;SDS011;73393;51.946;20.140;2023-11-19T14:33:48;29.80;;;17.63;;